Time;durP1;ratioP1;P1;durP2;ratioP2;P2;SDS_P1;SDS_P2;PMS_P1;PMS_P2;Temp;Humidity;BMP_temperature;BMP_pressure;BME280_temperature;BME280_humidity;BME280_pressure;Samples;Min_cycle;Max_cycle;Signal;HPM_P1;HPM_P2
2022/05/18 00:01:46;;;;;;;;;7.00;6.00;;;;;25.23;47.32;101415.72;5107748;27;45526;-44
2022/05/18 00:04:11;;;;;;;;;6.00;6.00;;;;;25.21;47.31;101423.28;5108685;27;46172;-46
2022/05/18 00:06:37;;;;;;;;;4.75;4.00;;;;;25.10;47.95;101413.97;5105390;27;45520;-42
2022/05/18 00:09:03;;;;;;;;;5.25;4.75;;;;;25.05;47.68;101413.78;5106775;27;45539;-42
2022/05/18 00:11:30;;;;;;;;;6.50;5.25;;;;;25.08;47.78;101424.25;5108744;27;45475;-44
2022/05/18 00:13:56;;;;;;;;;4.80;4.80;;;;;25.06;47.94;101434.50;5107016;27;46324;-44
2022/05/18 00:16:23;;;;;;;;;5.25;4.50;;;;;24.99;47.67;101426.44;5107111;27;45345;-44
2022/05/18 00:18:49;;;;;;;;;4.80;4.80;;;;;24.99;48.21;101423.69;5108695;27;45447;-46
2022/05/18 00:21:15;;;;;;;;;4.50;4.50;;;;;24.95;48.72;101430.66;5107217;27;45346;-45
2022/05/18 00:23:40;;;;;;;;;7.00;5.75;;;;;24.92;48.14;101428.38;5107028;27;46309;-44
2022/05/18 00:26:06;;;;;;;;;7.75;7.75;;;;;24.88;48.06;101429.88;5108355;27;45400;-43
2022/05/18 00:28:33;;;;;;;;;4.75;3.75;;;;;24.83;49.17;101438.72;5100391;27;45328;-44
2022/05/18 00:30:59;;;;;;;;;6.00;3.75;;;;;24.78;49.04;101432.28;5108196;27;45320;-43
2022/05/18 00:33:25;;;;;;;;;8.00;4.25;;;;;24.74;49.59;101433.81;5106802;27;46324;-43
2022/05/18 00:35:50;;;;;;;;;7.00;4.50;;;;;24.70;49.14;101443.47;5108488;27;45245;-44
2022/05/18 00:38:16;;;;;;;;;4.75;4.75;;;;;24.65;48.85;101449.56;5109100;27;45187;-45
2022/05/18 00:40:45;;;;;;;;;5.50;5.50;;;;;24.60;50.02;101452.94;5108378;27;45294;-43
2022/05/18 00:43:28;;;;;;;;;4.50;4.50;;;;;24.56;50.02;101464.50;5105122;27;46093;-44
2022/05/18 00:45:54;;;;;;;;;5.60;4.80;;;;;24.53;50.03;101454.06;5101108;27;45519;-44
2022/05/18 00:48:19;;;;;;;;;3.75;3.75;;;;;24.46;50.35;101453.28;5107592;27;45333;-43
2022/05/18 00:50:46;;;;;;;;;6.00;6.00;;;;;24.50;50.63;101458.06;5108696;27;45451;-45
2022/05/18 00:53:25;;;;;;;;;4.25;4.00;;;;;24.45;50.38;101454.34;5103353;27;45527;-44
2022/05/18 00:55:57;;;;;;;;;6.20;5.20;;;;;24.50;50.89;101462.66;5105657;27;45321;-51
2022/05/18 00:58:42;;;;;;;;;8.20;7.20;;;;;24.45;51.35;101462.50;5106333;27;45484;-43
2022/05/18 01:01:09;;;;;;;;;6.25;5.50;;;;;24.33;52.33;101446.03;5104789;27;45542;-43
2022/05/18 01:03:40;;;;;;;;;7.00;7.00;;;;;24.42;52.14;101471.09;5106623;27;47369;-45
2022/05/18 01:06:20;;;;;;;;;10.00;7.40;;;;;24.34;52.19;101461.28;5087770;27;45455;-47
2022/05/18 01:08:46;;;;;;;;;11.40;7.20;;;;;24.36;52.37;101472.78;5104824;27;45552;-43
2022/05/18 01:11:12;;;;;;;;;8.75;6.75;;;;;24.33;52.69;101478.66;5100190;27;45408;-43
2022/05/18 01:13:38;;;;;;;;;6.00;6.00;;;;;24.30;52.58;101487.25;5106248;27;45283;-44
2022/05/18 01:16:03;;;;;;;;;9.00;6.25;;;;;24.25;52.11;101487.91;5106521;27;45326;-43
2022/05/18 01:18:29;;;;;;;;;7.00;5.25;;;;;24.20;52.45;101487.75;5108549;27;45335;-44
2022/05/18 01:20:55;;;;;;;;;6.50;6.50;;;;;24.18;52.83;101483.56;5107066;27;45334;-43
2022/05/18 01:23:24;;;;;;;;;7.25;4.75;;;;;24.12;52.82;101482.56;5106946;27;46245;-46
2022/05/18 01:26:16;;;;;;;;;4.80;4.80;;;;;24.12;52.07;101482.56;5108085;27;45324;-44
2022/05/18 01:28:59;;;;;;;;;7.25;4.25;;;;;24.12;52.21;101485.28;5103166;27;45798;-43
2022/05/18 01:32:02;;;;;;;;;8.00;6.00;;;;;24.09;52.42;101481.09;5097476;27;45571;-42
2022/05/18 01:34:30;;;;;;;;;6.00;4.50;;;;;24.07;52.94;101482.38;5042646;28;45448;-45
2022/05/18 01:36:56;;;;;;;;;6.00;6.00;;;;;24.03;53.11;101490.13;5044254;28;45385;-50
2022/05/18 01:39:29;;;;;;;;;5.60;5.60;;;;;23.98;53.01;101495.41;5033442;28;45592;-45
2022/05/18 01:42:07;;;;;;;;;6.75;6.00;;;;;23.96;53.20;101497.47;5044851;28;45385;-44
2022/05/18 01:44:39;;;;;;;;;8.75;6.00;;;;;23.91;52.88;101502.75;5020355;28;46361;-45
2022/05/18 01:47:04;;;;;;;;;6.40;5.80;;;;;23.81;53.65;101497.78;5033628;28;45464;-45
2022/05/18 01:49:32;;;;;;;;;5.75;5.00;;;;;23.80;54.08;101497.97;5033524;28;45467;-49
2022/05/18 01:51:58;;;;;;;;;6.00;5.00;;;;;23.68;54.47;101488.84;5028154;28;45449;-44
2022/05/18 01:54:24;;;;;;;;;4.50;3.00;;;;;23.73;54.34;101502.63;5033011;28;46185;-42
2022/05/18 01:56:49;;;;;;;;;6.25;6.25;;;;;23.69;54.66;101487.81;5033040;28;45344;-51
2022/05/18 01:59:15;;;;;;;;;7.25;7.25;;;;;23.68;54.84;101500.53;5035981;28;45286;-45
2022/05/18 02:01:40;;;;;;;;;6.75;6.00;;;;;23.62;54.54;101493.22;5033304;28;45376;-46
2022/05/18 02:04:06;;;;;;;;;7.50;7.50;;;;;23.62;54.76;101502.19;5030477;28;47234;-45
2022/05/18 02:06:33;;;;;;;;;8.50;6.25;;;;;23.56;55.16;101505.78;5028717;28;45366;-42
2022/05/18 02:08:59;;;;;;;;;3.75;3.75;;;;;23.54;55.04;101509.75;5064527;28;45349;-42
2022/05/18 02:11:25;;;;;;;;;6.25;5.75;;;;;23.49;55.41;101509.56;5079544;28;45606;-43
2022/05/18 02:13:51;;;;;;;;;8.00;6.50;;;;;23.42;55.74;101512.28;5078836;27;45419;-45
2022/05/18 02:16:18;;;;;;;;;7.25;6.75;;;;;23.41;55.87;101516.88;5079075;28;45506;-46
2022/05/18 02:18:43;;;;;;;;;11.00;6.75;;;;;23.38;56.19;101530.03;5090132;27;45553;-46
2022/05/18 02:21:11;;;;;;;;;8.25;5.75;;;;;23.34;56.21;101535.09;5088489;27;45472;-45
2022/05/18 02:23:38;;;;;;;;;8.00;6.00;;;;;23.31;55.51;101538.22;5089701;27;47245;-42
2022/05/18 02:26:08;;;;;;;;;7.20;6.00;;;;;23.24;56.35;101534.69;5078954;27;45206;-43
2022/05/18 02:28:34;;;;;;;;;6.75;6.50;;;;;23.23;56.84;101545.75;5085954;27;45377;-42
2022/05/18 02:31:00;;;;;;;;;8.25;5.25;;;;;23.21;56.85;101550.53;5089357;27;45542;-43
2022/05/18 02:33:26;;;;;;;;;6.75;5.00;;;;;23.15;56.96;101550.34;5078755;27;45298;-44
2022/05/18 02:35:51;;;;;;;;;7.00;5.50;;;;;23.10;56.68;101550.16;5078885;28;45198;-44
2022/05/18 02:38:17;;;;;;;;;6.50;5.50;;;;;23.07;57.32;101553.28;5089017;27;45245;-45
2022/05/18 02:40:42;;;;;;;;;6.25;6.00;;;;;23.02;57.29;101561.22;5088284;27;45531;-46
2022/05/18 02:43:08;;;;;;;;;5.25;4.75;;;;;23.00;57.33;101567.88;5078594;27;46886;-43
2022/05/18 02:45:33;;;;;;;;;4.75;4.25;;;;;22.93;56.98;101570.63;5088002;27;45257;-43
2022/05/18 02:47:59;;;;;;;;;6.50;5.50;;;;;22.88;56.20;101575.78;5089234;27;45231;-45
2022/05/18 02:50:26;;;;;;;;;4.00;4.00;;;;;22.74;56.98;101557.81;5078755;28;45458;-43
2022/05/18 02:52:51;;;;;;;;;6.00;5.00;;;;;22.77;56.37;101579.13;5077755;27;45374;-49
2022/05/18 02:58:01;;;;;;;;;4.25;4.00;;;;;22.60;56.64;101568.66;5087437;27;45337;-44
2022/05/18 03:00:26;;;;;;;;;5.00;3.75;;;;;22.59;56.21;101577.00;5088005;27;45272;-43
2022/05/18 03:02:51;;;;;;;;;4.00;4.00;;;;;22.54;56.24;101584.91;5089569;27;47230;-43
2022/05/18 03:05:17;;;;;;;;;2.00;2.00;;;;;22.40;55.96;101568.59;5090503;27;45522;-43
2022/05/18 03:07:43;;;;;;;;;3.75;3.75;;;;;22.42;55.63;101582.81;5109274;27;45959;-49
2022/05/18 03:10:09;;;;;;;;;3.50;2.50;;;;;22.34;56.57;101584.88;5092252;27;45550;-44
2022/05/18 03:12:35;;;;;;;;;2.75;2.00;;;;;22.24;56.51;101573.56;5108634;27;46072;-44
2022/05/18 03:15:00;;;;;;;;;3.00;3.00;;;;;22.21;56.64;101577.53;5108987;27;45464;-46
2022/05/18 03:17:26;;;;;;;;;4.50;3.75;;;;;22.17;56.88;101578.97;5110320;27;45414;-43
2022/05/18 03:19:51;;;;;;;;;3.00;3.00;;;;;22.13;56.50;101581.25;5107328;27;45416;-43
2022/05/18 03:25:02;;;;;;;;;3.00;3.00;;;;;22.07;56.11;101578.47;5107857;27;45426;-44
2022/05/18 03:27:28;;;;;;;;;2.50;2.00;;;;;22.03;56.15;101578.03;5107376;27;45289;-44
2022/05/18 03:29:53;;;;;;;;;1.50;1.00;;;;;21.99;55.81;101584.91;5110313;27;45190;-44
2022/05/18 03:32:22;;;;;;;;;3.25;3.25;;;;;21.95;56.45;101596.34;5108911;27;46035;-45
2022/05/18 03:34:49;;;;;;;;;3.75;2.25;;;;;21.90;56.41;101600.50;5107911;27;45276;-43
2022/05/18 03:37:15;;;;;;;;;3.00;3.00;;;;;21.88;56.21;101607.16;5107835;27;45286;-43
2022/05/18 03:39:40;;;;;;;;;3.00;2.00;;;;;21.84;55.73;101612.13;5109523;27;45418;-44
2022/05/18 03:42:07;;;;;;;;;3.50;3.50;;;;;21.79;55.45;101606.50;5108017;27;46001;-43
2022/05/18 03:44:32;;;;;;;;;2.00;2.00;;;;;21.79;55.55;101611.06;5109799;27;45430;-43
2022/05/18 03:46:57;;;;;;;;;3.00;2.00;;;;;21.75;55.90;101620.63;5108868;27;45338;-45
2022/05/18 03:49:23;;;;;;;;;3.50;2.00;;;;;21.73;55.74;101623.53;5108505;27;45273;-43
2022/05/18 03:51:49;;;;;;;;;2.00;2.00;;;;;21.67;55.43;101627.88;5109821;27;45420;-43
2022/05/18 03:54:15;;;;;;;;;3.00;3.00;;;;;21.65;55.58;101626.38;5107668;27;45358;-45
2022/05/18 03:56:41;;;;;;;;;3.25;2.00;;;;;21.61;56.05;101628.66;5108274;27;45346;-43
2022/05/18 03:59:06;;;;;;;;;3.25;3.00;;;;;21.56;56.19;101628.41;5109658;27;45392;-43
2022/05/18 04:01:32;;;;;;;;;3.00;1.75;;;;;21.55;56.36;101640.28;5107028;27;45506;-45
2022/05/18 04:03:57;;;;;;;;;2.00;2.00;;;;;21.53;56.54;101655.91;5108316;27;45514;-44
2022/05/18 04:06:22;;;;;;;;;5.00;3.50;;;;;21.51;56.43;101649.81;5103941;27;45534;-45
2022/05/18 04:08:49;;;;;;;;;6.00;3.00;;;;;21.50;56.27;101658.16;5107053;27;45525;-45
2022/05/18 04:11:16;;;;;;;;;4.00;2.25;;;;;21.46;56.58;101646.88;5108744;27;45411;-48
2022/05/18 04:13:41;;;;;;;;;2.00;2.00;;;;;21.46;56.11;101656.88;5108456;27;45448;-43
2022/05/18 04:16:08;;;;;;;;;3.00;3.00;;;;;21.44;55.79;101657.06;5106857;27;45534;-47
2022/05/18 04:18:34;;;;;;;;;3.75;2.00;;;;;21.42;56.17;101668.09;5109158;27;46193;-45
2022/05/18 04:21:01;;;;;;;;;1.50;1.50;;;;;21.40;55.58;101666.59;5108104;27;45508;-44
2022/05/18 04:23:27;;;;;;;;;3.50;2.50;;;;;21.37;55.21;101664.31;5106919;27;45438;-44
2022/05/18 04:25:53;;;;;;;;;2.00;2.00;;;;;21.32;55.36;101653.19;5103629;27;45347;-44
2022/05/18 04:28:19;;;;;;;;;3.00;2.00;;;;;21.35;54.89;101671.75;5088294;27;45505;-45
2022/05/18 04:30:46;;;;;;;;;1.75;1.00;;;;;21.24;54.78;101651.47;5108212;27;45397;-44
2022/05/18 04:33:15;;;;;;;;;2.00;1.00;;;;;21.30;54.53;101668.78;5106299;27;45261;-49
2022/05/18 04:35:41;;;;;;;;;3.50;1.75;;;;;21.17;54.65;101650.56;5107541;27;45355;-45
2022/05/18 04:38:06;;;;;;;;;4.75;2.25;;;;;21.26;54.82;101662.91;5109025;27;45369;-45
2022/05/18 04:40:32;;;;;;;;;3.00;2.00;;;;;21.26;54.48;101678.31;5106399;27;46454;-44
2022/05/18 04:42:57;;;;;;;;;1.00;1.00;;;;;21.24;55.01;101670.41;5108090;27;45522;-47
2022/05/18 04:45:24;;;;;;;;;1.75;1.75;;;;;21.23;54.29;101673.28;5108159;27;45874;-42
2022/05/18 04:47:50;;;;;;;;;1.50;1.50;;;;;21.21;54.68;101673.50;5106625;27;45515;-50
2022/05/18 04:50:16;;;;;;;;;2.00;2.00;;;;;21.12;54.38;101667.38;5108032;27;47068;-46
2022/05/18 04:52:42;;;;;;;;;2.75;2.00;;;;;21.15;54.66;101683.22;5105258;27;45514;-45
2022/05/18 04:55:09;;;;;;;;;1.00;1.00;;;;;21.13;54.20;101690.69;5106500;27;45345;-44
2022/05/18 04:57:34;;;;;;;;;2.25;1.00;;;;;21.06;54.20;101688.94;5108846;27;45588;-45
2022/05/18 05:00:00;;;;;;;;;1.75;1.75;;;;;21.10;54.51;101696.47;5108001;27;45946;-45
2022/05/18 05:02:25;;;;;;;;;1.00;1.00;;;;;21.10;54.19;101707.31;5107291;27;45416;-43
2022/05/18 05:04:50;;;;;;;;;1.25;1.00;;;;;21.09;54.18;101708.34;5108387;27;45405;-44
2022/05/18 05:07:16;;;;;;;;;1.00;1.00;;;;;21.12;53.72;101709.84;5106772;27;45275;-44
2022/05/18 05:09:41;;;;;;;;;1.75;1.75;;;;;21.12;54.16;101712.53;5106724;27;46200;-45
2022/05/18 05:12:08;;;;;;;;;3.50;2.50;;;;;21.11;53.25;101717.13;5108013;27;45461;-44
2022/05/18 05:14:38;;;;;;;;;2.25;2.25;;;;;21.12;53.35;101718.78;5100917;27;45440;-47
2022/05/18 05:17:03;;;;;;;;;3.00;2.50;;;;;21.14;53.38;101710.47;5106824;27;45351;-45
2022/05/18 05:19:29;;;;;;;;;0.25;0.25;;;;;21.14;53.06;101722.13;5107774;27;45371;-44
2022/05/18 05:21:54;;;;;;;;;1.00;1.00;;;;;21.14;53.01;101719.41;5106255;27;45335;-43
2022/05/18 05:24:19;;;;;;;;;1.00;1.00;;;;;21.04;53.27;101701.84;5107177;27;45175;-48
2022/05/18 05:26:45;;;;;;;;;1.00;1.00;;;;;21.02;53.14;101696.59;5108121;27;45365;-43
2022/05/18 05:29:12;;;;;;;;;1.50;1.00;;;;;21.15;53.20;101720.25;5105623;27;45356;-44
2022/05/18 05:31:38;;;;;;;;;1.00;1.00;;;;;21.15;53.17;101723.81;5107210;27;45330;-46
2022/05/18 05:34:04;;;;;;;;;0.00;0.00;;;;;21.14;52.89;101729.41;5108615;27;45480;-45
2022/05/18 05:36:31;;;;;;;;;3.00;1.00;;;;;21.16;52.71;101733.59;5108439;27;45548;-44
2022/05/18 05:38:57;;;;;;;;;1.00;1.00;;;;;21.17;53.11;101742.56;5106410;27;46290;-44
2022/05/18 05:41:23;;;;;;;;;1.50;1.00;;;;;21.14;52.76;101734.81;5106537;27;45546;-43
2022/05/18 05:43:50;;;;;;;;;4.00;1.00;;;;;21.20;53.24;101746.75;5109087;27;45292;-44
2022/05/18 05:46:17;;;;;;;;;1.00;1.00;;;;;21.23;53.30;101752.59;5110094;27;45422;-46
2022/05/18 05:48:44;;;;;;;;;1.00;1.00;;;;;21.27;52.94;101745.78;5107271;27;46243;-45
2022/05/18 05:51:13;;;;;;;;;1.75;1.75;;;;;21.30;52.26;101756.22;5111432;27;45394;-45
2022/05/18 05:53:45;;;;;;;;;1.00;1.00;;;;;21.32;52.83;101753.34;5110290;27;45182;-46
2022/05/18 05:56:12;;;;;;;;;1.00;1.00;;;;;21.30;52.86;101752.69;5109491;27;45516;-44
2022/05/18 05:58:38;;;;;;;;;2.50;1.50;;;;;21.40;52.72;101766.75;5110687;27;45325;-46
2022/05/18 06:01:06;;;;;;;;;0.50;0.50;;;;;21.45;52.57;101767.03;5110800;27;45535;-46
2022/05/18 06:03:33;;;;;;;;;4.00;1.00;;;;;21.46;52.29;101767.88;5108999;27;45277;-45
2022/05/18 06:05:59;;;;;;;;;3.25;1.00;;;;;21.56;51.71;101765.66;5110962;27;45419;-48
2022/05/18 06:08:25;;;;;;;;;1.00;1.00;;;;;21.59;52.37;101760.69;5110639;27;47159;-44
2022/05/18 06:10:50;;;;;;;;;1.25;1.25;;;;;21.62;51.59;101764.91;5109028;27;45445;-43
2022/05/18 06:13:15;;;;;;;;;2.00;2.00;;;;;21.67;51.87;101770.56;5110817;27;45498;-43
2022/05/18 06:15:41;;;;;;;;;4.50;1.75;;;;;21.70;51.35;101767.47;5108414;27;45476;-44
2022/05/18 06:18:07;;;;;;;;;2.00;1.00;;;;;21.71;51.12;101758.31;5109150;27;45558;-43
2022/05/18 06:20:33;;;;;;;;;2.00;2.00;;;;;21.80;51.04;101770.66;5108811;27;45175;-44
2022/05/18 06:22:59;;;;;;;;;1.00;1.00;;;;;21.85;50.01;101770.91;5108344;27;45373;-46
2022/05/18 06:25:25;;;;;;;;;1.00;1.00;;;;;21.88;50.02;101773.22;5110343;27;45445;-43
2022/05/18 06:27:50;;;;;;;;;0.00;0.00;;;;;21.95;49.86;101775.13;5109353;27;46181;-47
2022/05/18 06:30:16;;;;;;;;;4.00;1.00;;;;;21.98;49.52;101770.16;5108396;27;45445;-44
2022/05/18 06:32:42;;;;;;;;;3.25;2.00;;;;;22.02;49.88;101771.47;5102835;27;45373;-44
2022/05/18 06:35:08;;;;;;;;;1.00;1.00;;;;;21.96;49.63;101757.88;5109827;27;45486;-43
2022/05/18 06:37:33;;;;;;;;;1.00;1.00;;;;;22.14;49.57;101769.91;5109878;27;46294;-43
2022/05/18 06:39:59;;;;;;;;;0.75;0.75;;;;;22.26;49.58;101772.06;5107690;27;45832;-45
2022/05/18 06:42:24;;;;;;;;;4.25;2.00;;;;;22.28;49.25;101753.72;5108851;27;45635;-48
2022/05/18 06:44:50;;;;;;;;;1.50;1.00;;;;;22.45;48.49;101765.91;5109234;27;45459;-45
2022/05/18 06:47:16;;;;;;;;;0.75;0.75;;;;;22.66;48.39;101768.53;5109937;27;46140;-44
2022/05/18 06:49:42;;;;;;;;;2.00;2.00;;;;;23.12;47.88;101767.06;5104641;27;45347;-43
2022/05/18 06:52:09;;;;;;;;;3.00;3.00;;;;;24.30;45.84;101773.59;5109028;27;45395;-49
2022/05/18 06:54:38;;;;;;;;;1.50;1.50;;;;;26.07;42.70;101768.44;5108281;27;45348;-44
2022/05/18 06:57:04;;;;;;;;;3.00;1.60;;;;;27.97;38.71;101762.53;5104678;27;47136;-47
2022/05/18 06:59:29;;;;;;;;;2.00;1.00;;;;;29.63;35.88;101756.31;5109081;27;45435;-48
2022/05/18 07:01:55;;;;;;;;;3.00;1.25;;;;;31.14;34.51;101751.47;5108164;27;45436;-46
2022/05/18 07:04:20;;;;;;;;;3.00;2.00;;;;;32.32;31.64;101755.94;5110154;27;45515;-49
2022/05/18 07:06:45;;;;;;;;;1.00;1.00;;;;;33.37;29.60;101755.75;5108262;27;45852;-44
2022/05/18 07:09:16;;;;;;;;;2.00;1.00;;;;;34.23;30.72;101741.03;5108635;27;45537;-52
2022/05/18 07:11:43;;;;;;;;;0.80;0.80;;;;;34.85;29.15;101753.50;5104174;27;45340;-46
2022/05/18 07:14:09;;;;;;;;;2.00;2.00;;;;;35.43;27.83;101750.03;5109337;27;45495;-46
2022/05/18 07:16:35;;;;;;;;;0.00;0.00;;;;;36.38;25.33;101738.28;5107710;27;47145;-45
2022/05/18 07:19:01;;;;;;;;;1.00;1.00;;;;;37.42;24.79;101737.38;5109513;27;45275;-48
2022/05/18 07:21:27;;;;;;;;;2.60;1.40;;;;;38.46;23.85;101746.22;5108902;27;45395;-45
2022/05/18 07:23:53;;;;;;;;;3.00;0.25;;;;;39.08;22.21;101745.66;5108540;27;45284;-47
2022/05/18 07:26:20;;;;;;;;;1.00;1.00;;;;;39.82;22.75;101743.25;5109563;27;45336;-48
2022/05/18 07:28:47;;;;;;;;;1.00;1.00;;;;;40.37;23.74;101745.56;5108139;27;46261;-51
2022/05/18 07:31:13;;;;;;;;;2.00;0.40;;;;;40.76;20.80;101741.06;5107742;27;45434;-48
2022/05/18 07:33:38;;;;;;;;;0.20;0.20;;;;;41.20;20.23;101746.63;5109728;27;45536;-47
2022/05/18 07:36:05;;;;;;;;;2.50;1.00;;;;;41.69;19.81;101748.03;5107631;27;46142;-51
2022/05/18 07:38:32;;;;;;;;;1.00;1.00;;;;;42.16;19.29;101745.19;5107191;27;45456;-50
2022/05/18 07:40:59;;;;;;;;;1.00;1.00;;;;;42.54;18.80;101736.75;5109497;27;45427;-44
2022/05/18 07:43:24;;;;;;;;;2.00;1.00;;;;;43.12;18.62;101756.56;5107872;27;45199;-50
2022/05/18 07:45:52;;;;;;;;;4.00;2.00;;;;;43.55;18.97;101747.72;5108319;27;45340;-47
2022/05/18 07:48:18;;;;;;;;;2.40;2.00;;;;;43.81;18.01;101752.19;5108958;27;45414;-50
2022/05/18 07:50:43;;;;;;;;;2.75;2.50;;;;;44.20;17.87;101749.88;5107717;27;45388;-50
2022/05/18 07:53:09;;;;;;;;;2.00;2.00;;;;;44.69;18.47;101747.03;5108738;27;45508;-50
2022/05/18 07:55:35;;;;;;;;;2.50;2.50;;;;;44.91;17.58;101746.47;5107484;27;46401;-50
2022/05/18 07:58:09;;;;;;;;;4.50;4.00;;;;;44.97;18.83;101749.88;5106967;27;45484;-50
2022/05/18 08:00:35;;;;;;;;;2.60;1.00;;;;;44.87;17.63;101747.56;5107495;27;45385;-52
2022/05/18 08:03:01;;;;;;;;;3.00;1.25;;;;;44.85;16.84;101742.31;5109243;27;45472;-47
2022/05/18 08:05:28;;;;;;;;;3.25;2.25;;;;;45.17;17.48;101734.81;5107564;27;46183;-43
2022/05/18 08:07:55;;;;;;;;;2.00;2.00;;;;;45.59;17.57;101739.94;5106639;27;45352;-43
2022/05/18 08:15:50;;;;;;;;;3.80;3.80;;;;;46.84;14.95;101742.09;5106362;27;45723;-45
2022/05/18 08:18:17;;;;;;;;;2.00;1.75;;;;;47.13;15.62;101747.13;5107290;27;45913;-43
2022/05/18 08:20:44;;;;;;;;;1.80;1.40;;;;;47.46;15.45;101752.22;5106278;27;45293;-46
2022/05/18 08:23:10;;;;;;;;;2.00;0.80;;;;;47.35;14.50;101745.56;5108293;27;45388;-44
2022/05/18 08:25:36;;;;;;;;;6.75;5.75;;;;;47.34;14.44;101743.13;5107013;27;45331;-44
2022/05/18 08:28:02;;;;;;;;;3.20;3.20;;;;;47.39;16.35;101742.81;5108710;27;45238;-46
2022/05/18 08:30:30;;;;;;;;;5.80;5.00;;;;;47.13;15.23;101741.50;5107785;27;45292;-43
2022/05/18 08:32:59;;;;;;;;;1.00;1.00;;;;;46.39;16.39;101735.91;5107170;27;45480;-50
2022/05/18 08:35:27;;;;;;;;;4.40;1.80;;;;;45.71;17.52;101737.06;5100339;27;46356;-45
2022/05/18 08:37:53;;;;;;;;;1.80;1.80;;;;;45.15;17.07;101725.94;5108366;27;45321;-44
2022/05/18 08:40:28;;;;;;;;;2.00;2.00;;;;;44.54;17.67;101728.91;5106917;27;45223;-46
2022/05/18 08:43:08;;;;;;;;;1.40;1.40;;;;;44.40;18.48;101734.13;5108490;27;45331;-48
2022/05/18 08:45:38;;;;;;;;;2.00;2.00;;;;;43.09;18.46;101740.47;5105043;27;46375;-44
2022/05/18 08:48:09;;;;;;;;;4.00;3.00;;;;;42.13;19.84;101746.69;5105293;27;45351;-43
2022/05/18 08:50:37;;;;;;;;;3.20;3.00;;;;;41.76;19.80;101739.94;5108310;27;45483;-52
2022/05/18 08:53:08;;;;;;;;;3.60;2.20;;;;;41.77;19.81;101736.00;5106174;27;45247;-47
2022/05/18 08:56:01;;;;;;;;;1.80;1.80;;;;;41.49;19.83;101732.78;5105870;27;45363;-43
2022/05/18 08:58:29;;;;;;;;;4.00;2.60;;;;;41.93;19.58;101735.44;5106970;27;45468;-45
2022/05/18 09:01:10;;;;;;;;;2.00;1.60;;;;;42.24;19.08;101730.38;5106741;27;45477;-44
2022/05/18 09:03:43;;;;;;;;;2.20;1.00;;;;;42.64;19.31;101726.34;5100099;27;45525;-44
2022/05/18 09:06:39;;;;;;;;;2.80;1.00;;;;;43.67;18.18;101724.53;5103512;27;46431;-45
2022/05/18 09:12:02;;;;;;;;;3.20;3.20;;;;;42.87;19.44;101719.22;5104927;27;45190;-48
2022/05/18 09:14:37;;;;;;;;;4.40;3.20;;;;;42.05;19.84;101718.78;5107814;27;45553;-47
2022/05/18 09:17:33;;;;;;;;;1.20;1.20;;;;;42.24;19.42;101719.19;5102333;27;45499;-49
2022/05/18 09:20:35;;;;;;;;;2.40;2.40;;;;;42.95;19.16;101718.34;5105033;27;45366;-43
2022/05/18 09:23:22;;;;;;;;;2.80;1.20;;;;;42.91;18.66;101713.78;5105825;27;45314;-44
2022/05/18 09:26:06;;;;;;;;;3.00;3.00;;;;;42.32;19.16;101709.94;5103710;27;45387;-46
2022/05/18 09:28:53;;;;;;;;;1.20;1.20;;;;;42.24;19.18;101721.19;5103657;27;47047;-43
2022/05/18 09:31:50;;;;;;;;;1.40;1.00;;;;;43.04;19.10;101707.91;5104777;27;45355;-43
2022/05/18 09:34:21;;;;;;;;;2.00;2.00;;;;;44.18;18.07;101705.38;5104058;27;45539;-51
2022/05/18 09:36:58;;;;;;;;;2.00;2.00;;;;;45.33;17.94;101708.75;5103423;27;45317;-44
2022/05/18 09:39:27;;;;;;;;;2.00;2.00;;;;;46.48;16.41;101707.53;5099986;27;45519;-48
2022/05/18 09:42:04;;;;;;;;;1.40;1.40;;;;;47.10;15.67;101700.00;5106172;27;45565;-50
2022/05/18 09:45:04;;;;;;;;;3.20;2.00;;;;;47.65;16.27;101696.94;5097084;27;45258;-44
2022/05/18 09:47:36;;;;;;;;;1.80;1.80;;;;;48.40;15.11;101696.09;5105302;27;45442;-47
2022/05/18 09:50:08;;;;;;;;;3.20;0.80;;;;;49.03;14.68;101696.44;5103488;27;45509;-46
2022/05/18 09:52:36;;;;;;;;;2.40;2.40;;;;;49.14;14.38;101701.03;5107337;27;45378;-45
2022/05/18 09:55:04;;;;;;;;;1.40;1.40;;;;;49.18;13.70;101703.88;5105625;27;45379;-44
2022/05/18 09:57:48;;;;;;;;;2.80;0.20;;;;;49.27;14.09;101697.91;5105072;27;45326;-46
2022/05/18 10:00:19;;;;;;;;;2.00;1.20;;;;;49.75;14.28;101695.09;5089271;27;46010;-50
2022/05/18 10:08:43;;;;;;;;;3.40;2.80;;;;;50.50;13.25;101685.03;5001871;28;45431;-44
2022/05/18 10:11:14;;;;;;;;;2.20;2.20;;;;;50.24;14.11;101682.50;5011649;28;46420;-43
2022/05/18 10:14:08;;;;;;;;;2.00;2.00;;;;;49.49;13.61;101679.16;5013536;28;45462;-45
2022/05/18 10:16:49;;;;;;;;;3.00;3.00;;;;;49.83;13.56;101674.16;4943675;28;45531;-45
2022/05/18 10:19:33;;;;;;;;;2.60;1.60;;;;;49.72;13.89;101671.22;4954766;28;45385;-42
2022/05/18 10:22:03;;;;;;;;;1.80;1.80;;;;;49.23;14.68;101666.00;4954308;28;46211;-48
2022/05/18 10:24:48;;;;;;;;;1.20;0.80;;;;;49.05;14.15;101663.75;4954683;28;45522;-47
2022/05/18 10:27:13;;;;;;;;;2.60;1.20;;;;;49.19;14.10;101655.47;4954552;28;45592;-45
2022/05/18 10:29:40;;;;;;;;;2.00;1.00;;;;;49.16;14.44;101659.06;4955326;28;45467;-51
2022/05/18 10:32:19;;;;;;;;;2.00;2.00;;;;;49.27;13.85;101649.88;4957914;28;45553;-44
2022/05/18 10:34:47;;;;;;;;;2.80;1.80;;;;;49.39;13.76;101649.53;4957786;28;46089;-43
2022/05/18 10:37:31;;;;;;;;;1.20;1.20;;;;;49.65;13.44;101646.56;4957771;28;45619;-44
2022/05/18 10:40:00;;;;;;;;;2.60;2.60;;;;;49.26;14.10;101653.88;4958067;28;45510;-45
2022/05/18 10:42:29;;;;;;;;;1.80;1.40;;;;;48.95;13.40;101639.84;4974318;28;46018;-46
2022/05/18 10:45:00;;;;;;;;;1.80;1.80;;;;;49.05;13.79;101635.50;4996033;28;45301;-43
2022/05/18 10:47:32;;;;;;;;;2.40;1.80;;;;;49.02;13.55;101627.03;4994368;28;45486;-45
2022/05/18 10:50:09;;;;;;;;;3.00;1.60;;;;;49.16;13.69;101633.63;4996910;28;45494;-51
2022/05/18 10:52:35;;;;;;;;;1.60;1.60;;;;;48.97;13.24;101620.53;5009383;27;45385;-46
2022/05/18 10:55:18;;;;;;;;;4.25;4.00;;;;;48.73;13.64;101616.22;5107089;27;45462;-50
2022/05/18 10:58:05;;;;;;;;;3.20;1.40;;;;;48.46;13.64;101628.81;5107056;27;45265;-47
2022/05/18 11:00:44;;;;;;;;;2.40;2.00;;;;;47.47;14.62;101621.34;5097376;27;45511;-46
2022/05/18 11:03:37;;;;;;;;;3.00;3.00;;;;;46.22;15.52;101627.41;5105727;27;45472;-42
2022/05/18 11:06:19;;;;;;;;;2.60;2.20;;;;;44.67;15.67;101621.13;5110367;27;45190;-44
2022/05/18 11:08:45;;;;;;;;;3.80;2.20;;;;;42.65;17.13;101600.09;5107536;27;45434;-44
2022/05/18 11:11:32;;;;;;;;;1.80;1.80;;;;;41.09;18.78;101617.78;5109842;27;45310;-46
2022/05/18 11:14:16;;;;;;;;;3.80;2.00;;;;;39.55;19.93;101620.88;5109554;27;45781;-43
2022/05/18 11:16:41;;;;;;;;;6.20;4.00;;;;;38.48;21.11;101623.59;5107698;27;45430;-47
2022/05/18 11:19:31;;;;;;;;;3.50;2.00;;;;;37.56;21.67;101625.53;5109735;27;45274;-46
2022/05/18 11:22:22;;;;;;;;;3.80;2.00;;;;;36.75;23.26;101624.97;5106658;27;45458;-46
2022/05/18 11:25:14;;;;;;;;;2.20;2.20;;;;;35.71;24.26;101627.47;5055623;28;47185;-46
2022/05/18 11:27:45;;;;;;;;;2.00;2.00;;;;;35.16;25.07;101626.09;5060347;28;45469;-46
2022/05/18 11:30:18;;;;;;;;;3.40;2.20;;;;;34.67;25.70;101627.00;5060340;28;45360;-44
2022/05/18 11:33:02;;;;;;;;;4.40;2.40;;;;;34.45;25.91;101617.19;5059271;28;45468;-46
2022/05/18 11:35:53;;;;;;;;;1.00;1.00;;;;;34.20;27.12;101611.81;5056531;28;46315;-43
2022/05/18 11:38:28;;;;;;;;;3.00;3.00;;;;;33.91;27.22;101604.19;5043830;28;45582;-47
2022/05/18 11:40:53;;;;;;;;;2.60;2.60;;;;;33.86;27.75;101609.72;5055023;28;45556;-44
2022/05/18 11:43:30;;;;;;;;;5.00;5.00;;;;;33.83;27.99;101601.19;5055388;28;45556;-44
2022/05/18 11:45:56;;;;;;;;;3.00;2.20;;;;;33.76;27.29;101605.09;5055505;28;45361;-43
2022/05/18 11:48:32;;;;;;;;;6.50;4.00;;;;;33.72;27.31;101594.88;5064330;28;45533;-50
2022/05/18 11:51:19;;;;;;;;;3.60;3.60;;;;;33.67;27.34;101598.50;5056290;28;45453;-44
2022/05/18 11:54:09;;;;;;;;;3.80;2.20;;;;;33.62;27.02;101592.16;5062556;28;45287;-52
2022/05/18 11:57:01;;;;;;;;;2.20;1.80;;;;;33.61;27.23;101593.25;5064817;28;46141;-45